Time;durP1;ratioP1;P1;durP2;ratioP2;P2;SDS_P1;SDS_P2;PMS_P1;PMS_P2;Temp;Humidity;BMP_temperature;BMP_pressure;BME280_temperature;BME280_humidity;BME280_pressure;Samples;Min_cycle;Max_cycle;Signal;HPM_P1;HPM_P2
2023/07/02 00:01:57;;;;;;;25.13;23.63;;;;;;;;;;5092793;28;20443;-78
2023/07/02 00:04:23;;;;;;;27.20;25.43;;;;;;;;;;5093016;28;20431;-78
2023/07/02 00:06:52;;;;;;;26.73;24.97;;;;;;;;;;5092314;28;20455;-78
2023/07/02 00:09:19;;;;;;;25.23;23.70;;;;;;;;;;5093227;28;20444;-77
2023/07/02 00:11:47;;;;;;;26.83;25.13;;;;;;;;;;5090766;28;20463;-78
2023/07/02 00:14:14;;;;;;;25.73;24.23;;;;;;;;;;5092229;28;20456;-77
2023/07/02 00:16:44;;;;;;;26.57;24.87;;;;;;;;;;5092109;28;20523;-78
2023/07/02 00:19:12;;;;;;;26.47;24.77;;;;;;;;;;5092952;28;20437;-78
2023/07/02 00:21:40;;;;;;;25.70;23.97;;;;;;;;;;5092709;28;20453;-77
2023/07/02 00:24:09;;;;;;;25.73;24.13;;;;;;;;;;5092860;28;20455;-77
2023/07/02 00:26:37;;;;;;;27.13;25.53;;;;;;;;;;5092027;28;20474;-78
2023/07/02 00:29:05;;;;;;;26.90;25.23;;;;;;;;;;5092614;28;20459;-78
2023/07/02 00:31:33;;;;;;;26.33;24.73;;;;;;;;;;5091827;28;20451;-78
2023/07/02 00:34:00;;;;;;;26.57;24.90;;;;;;;;;;5092756;28;20506;-78
2023/07/02 00:36:27;;;;;;;27.20;25.60;;;;;;;;;;5092032;28;20453;-77
2023/07/02 00:38:54;;;;;;;26.80;25.10;;;;;;;;;;5092748;28;20472;-78
2023/07/02 00:41:23;;;;;;;27.27;25.23;;;;;;;;;;5091461;28;20887;-78
2023/07/02 00:43:50;;;;;;;25.03;23.53;;;;;;;;;;5092380;28;20428;-78
2023/07/02 00:46:19;;;;;;;25.57;23.87;;;;;;;;;;5091276;28;20967;-78
2023/07/02 00:48:47;;;;;;;25.70;24.17;;;;;;;;;;5092304;28;20431;-78
2023/07/02 00:51:16;;;;;;;25.47;24.07;;;;;;;;;;5092148;28;20451;-77
2023/07/02 00:53:43;;;;;;;26.27;24.67;;;;;;;;;;5092294;28;20424;-77
2023/07/02 00:56:10;;;;;;;26.37;24.70;;;;;;;;;;5091779;28;20452;-78
2023/07/02 00:58:40;;;;;;;25.43;23.93;;;;;;;;;;5092756;28;20428;-77
2023/07/02 01:01:09;;;;;;;26.70;25.13;;;;;;;;;;5091352;28;20804;-78
2023/07/02 01:03:37;;;;;;;28.37;26.57;;;;;;;;;;5092038;28;20523;-78
2023/07/02 01:06:04;;;;;;;27.27;24.97;;;;;;;;;;5091400;28;20453;-78
2023/07/02 01:08:31;;;;;;;25.50;24.10;;;;;;;;;;5092043;28;20498;-78
2023/07/02 01:10:59;;;;;;;25.20;23.70;;;;;;;;;;5093136;28;20443;-78
2023/07/02 01:13:27;;;;;;;26.67;24.90;;;;;;;;;;5096329;28;20419;-77
2023/07/02 01:15:56;;;;;;;26.63;24.93;;;;;;;;;;5095633;28;20456;-78
2023/07/02 01:18:23;;;;;;;28.47;26.47;;;;;;;;;;5096160;28;20448;-78
2023/07/02 01:20:53;;;;;;;26.20;24.60;;;;;;;;;;5095413;28;20492;-77
2023/07/02 01:23:20;;;;;;;28.40;26.27;;;;;;;;;;5096330;28;20531;-79
2023/07/02 01:25:47;;;;;;;26.73;24.90;;;;;;;;;;5095481;28;21134;-78
2023/07/02 01:28:14;;;;;;;28.07;26.33;;;;;;;;;;5095947;28;20858;-78
2023/07/02 01:30:41;;;;;;;26.57;24.97;;;;;;;;;;5095451;28;20443;-77
2023/07/02 01:33:08;;;;;;;26.27;24.57;;;;;;;;;;5095873;28;20453;-78
2023/07/02 01:35:35;;;;;;;29.03;27.03;;;;;;;;;;5095430;28;20509;-78
2023/07/02 01:38:03;;;;;;;27.10;25.40;;;;;;;;;;5095686;28;20861;-76
2023/07/02 01:40:30;;;;;;;26.87;25.10;;;;;;;;;;5095329;28;20516;-78
2023/07/02 01:42:57;;;;;;;27.73;26.13;;;;;;;;;;5095967;28;20411;-78
2023/07/02 01:45:25;;;;;;;28.90;27.07;;;;;;;;;;5095792;28;20419;-79
2023/07/02 01:47:52;;;;;;;27.73;25.83;;;;;;;;;;5094899;28;20463;-78
2023/07/02 01:50:19;;;;;;;28.43;26.63;;;;;;;;;;5095206;28;20472;-77
2023/07/02 01:52:46;;;;;;;29.43;27.60;;;;;;;;;;5095179;28;20973;-78
2023/07/02 01:55:14;;;;;;;29.27;27.33;;;;;;;;;;5095429;28;20773;-79
2023/07/02 01:57:41;;;;;;;28.03;26.30;;;;;;;;;;5094642;28;20473;-78
2023/07/02 02:00:09;;;;;;;28.50;26.60;;;;;;;;;;5094826;28;20465;-78
2023/07/02 02:02:36;;;;;;;30.23;28.10;;;;;;;;;;5094429;28;20423;-77
2023/07/02 02:05:03;;;;;;;27.97;26.07;;;;;;;;;;5094627;28;20473;-77
2023/07/02 02:07:30;;;;;;;29.90;27.90;;;;;;;;;;5092442;28;20489;-78
2023/07/02 02:09:57;;;;;;;27.90;26.20;;;;;;;;;;5094224;28;20433;-77
2023/07/02 02:12:25;;;;;;;28.70;26.80;;;;;;;;;;5095055;28;20477;-77
2023/07/02 02:14:52;;;;;;;27.33;25.57;;;;;;;;;;5094821;28;20427;-78
2023/07/02 02:17:19;;;;;;;29.10;27.20;;;;;;;;;;5094024;28;20469;-79
2023/07/02 02:19:46;;;;;;;27.20;25.40;;;;;;;;;;5094317;28;20892;-78
2023/07/02 02:22:13;;;;;;;28.47;26.53;;;;;;;;;;5094205;28;20447;-78
2023/07/02 02:24:40;;;;;;;28.00;26.20;;;;;;;;;;5094933;28;20424;-77
2023/07/02 02:27:07;;;;;;;29.47;27.63;;;;;;;;;;5094546;28;20455;-77
2023/07/02 02:29:36;;;;;;;29.47;27.63;;;;;;;;;;5094182;28;20471;-78
2023/07/02 02:32:03;;;;;;;29.37;27.47;;;;;;;;;;5093801;28;20449;-78
2023/07/02 02:34:30;;;;;;;28.80;26.90;;;;;;;;;;5094206;28;20423;-77
2023/07/02 02:36:57;;;;;;;29.03;26.90;;;;;;;;;;5093666;28;20441;-78
2023/07/02 02:39:24;;;;;;;30.03;27.90;;;;;;;;;;5094082;28;20456;-78
2023/07/02 02:41:51;;;;;;;28.57;26.77;;;;;;;;;;5093149;28;20481;-77
2023/07/02 02:44:18;;;;;;;29.87;27.57;;;;;;;;;;5093939;28;20760;-78
2023/07/02 02:46:46;;;;;;;30.27;28.23;;;;;;;;;;5093325;28;20424;-77
2023/07/02 02:49:13;;;;;;;29.17;27.10;;;;;;;;;;5093928;28;20506;-77
2023/07/02 02:51:41;;;;;;;29.97;27.87;;;;;;;;;;5093258;28;21084;-77
2023/07/02 02:54:08;;;;;;;29.07;27.03;;;;;;;;;;5093943;28;20427;-77
2023/07/02 02:56:35;;;;;;;29.07;26.90;;;;;;;;;;5093648;28;20445;-77
2023/07/02 02:59:02;;;;;;;29.70;27.50;;;;;;;;;;5093885;28;20442;-77
2023/07/02 03:01:30;;;;;;;29.20;27.10;;;;;;;;;;5092542;28;21015;-77
2023/07/02 03:04:00;;;;;;;27.67;25.80;;;;;;;;;;5093742;28;20486;-78
2023/07/02 03:06:27;;;;;;;27.80;25.77;;;;;;;;;;5093219;28;20448;-78
2023/07/02 03:08:54;;;;;;;28.23;25.93;;;;;;;;;;5092316;28;20975;-78
2023/07/02 03:11:21;;;;;;;27.87;25.93;;;;;;;;;;5094068;28;20468;-78
2023/07/02 03:13:48;;;;;;;28.80;26.90;;;;;;;;;;5093996;28;20453;-78
2023/07/02 03:16:15;;;;;;;28.23;26.20;;;;;;;;;;5093249;28;20484;-78
2023/07/02 03:18:42;;;;;;;27.73;25.63;;;;;;;;;;5094304;28;20431;-77
2023/07/02 03:21:10;;;;;;;28.00;25.80;;;;;;;;;;5093236;28;20459;-78
2023/07/02 03:23:37;;;;;;;28.10;26.10;;;;;;;;;;5093781;28;20453;-78
2023/07/02 03:26:04;;;;;;;30.07;27.30;;;;;;;;;;5093305;28;20449;-78
2023/07/02 03:28:33;;;;;;;27.80;25.67;;;;;;;;;;5093671;28;20454;-78
2023/07/02 03:31:00;;;;;;;27.87;25.60;;;;;;;;;;5093404;28;20465;-78
2023/07/02 03:33:27;;;;;;;27.73;25.27;;;;;;;;;;5093066;28;20485;-79
2023/07/02 03:35:54;;;;;;;27.30;25.40;;;;;;;;;;5092995;28;20432;-78
2023/07/02 03:38:23;;;;;;;28.07;25.93;;;;;;;;;;5094038;28;20788;-78
2023/07/02 03:40:50;;;;;;;28.23;26.43;;;;;;;;;;5092666;28;20492;-77
2023/07/02 03:43:17;;;;;;;27.53;25.53;;;;;;;;;;5093264;28;20915;-78
2023/07/02 03:45:44;;;;;;;28.03;26.00;;;;;;;;;;5092829;28;20853;-79
2023/07/02 03:48:11;;;;;;;29.37;26.83;;;;;;;;;;5092932;28;20521;-78
2023/07/02 03:50:38;;;;;;;25.30;23.30;;;;;;;;;;5093233;28;20489;-77
2023/07/02 03:53:05;;;;;;;28.87;26.47;;;;;;;;;;5093380;28;20468;-78
2023/07/02 03:55:34;;;;;;;26.27;24.37;;;;;;;;;;5092749;28;20457;-78
2023/07/02 03:58:01;;;;;;;29.50;26.93;;;;;;;;;;5092841;28;20427;-78
2023/07/02 04:00:28;;;;;;;27.37;25.07;;;;;;;;;;5092314;28;20506;-77
2023/07/02 04:02:55;;;;;;;29.20;26.73;;;;;;;;;;5093193;28;20437;-78
2023/07/02 04:05:22;;;;;;;28.83;26.63;;;;;;;;;;5093114;28;20777;-79
2023/07/02 04:07:49;;;;;;;28.70;26.23;;;;;;;;;;5092069;28;20518;-79
2023/07/02 04:10:16;;;;;;;27.70;25.60;;;;;;;;;;5092398;28;20469;-78
2023/07/02 04:12:44;;;;;;;26.43;24.63;;;;;;;;;;5096110;28;20437;-78
2023/07/02 04:15:12;;;;;;;27.97;25.87;;;;;;;;;;5096394;28;20441;-78
2023/07/02 04:17:38;;;;;;;28.03;26.10;;;;;;;;;;5094232;28;20464;-77
2023/07/02 04:20:07;;;;;;;26.37;24.10;;;;;;;;;;5092413;28;20507;-79
2023/07/02 04:22:34;;;;;;;27.80;25.47;;;;;;;;;;5092855;28;20433;-78
2023/07/02 04:25:01;;;;;;;27.30;25.40;;;;;;;;;;5093112;28;20437;-78
2023/07/02 04:27:28;;;;;;;24.27;22.33;;;;;;;;;;5092554;28;20485;-78
2023/07/02 04:29:57;;;;;;;26.47;24.37;;;;;;;;;;5092748;28;20419;-77
2023/07/02 04:32:24;;;;;;;27.17;24.97;;;;;;;;;;5092460;28;20437;-78
2023/07/02 04:34:51;;;;;;;28.27;26.20;;;;;;;;;;5092948;28;20419;-78
2023/07/02 04:37:18;;;;;;;27.57;25.53;;;;;;;;;;5092268;28;20452;-78
2023/07/02 04:39:45;;;;;;;25.83;24.07;;;;;;;;;;5092476;28;20496;-78
2023/07/02 04:42:14;;;;;;;28.63;25.90;;;;;;;;;;5091658;28;20451;-77
2023/07/02 04:44:43;;;;;;;27.37;25.20;;;;;;;;;;5092073;28;20464;-77
2023/07/02 04:47:11;;;;;;;27.10;25.20;;;;;;;;;;5091435;28;20455;-78
2023/07/02 04:49:38;;;;;;;26.23;24.43;;;;;;;;;;5092412;28;20502;-78
2023/07/02 04:52:05;;;;;;;25.80;23.83;;;;;;;;;;5092124;28;20435;-77
2023/07/02 04:54:32;;;;;;;24.33;22.53;;;;;;;;;;5091631;28;20889;-76
2023/07/02 04:56:59;;;;;;;26.80;24.60;;;;;;;;;;5091807;28;20419;-76
2023/07/02 04:59:26;;;;;;;25.23;23.40;;;;;;;;;;5092623;28;20441;-77
2023/07/02 05:01:53;;;;;;;25.43;23.40;;;;;;;;;;5092239;28;20446;-78
2023/07/02 05:04:22;;;;;;;24.33;22.30;;;;;;;;;;5092035;28;20431;-77
2023/07/02 05:06:49;;;;;;;25.80;23.80;;;;;;;;;;5091448;28;20455;-77
2023/07/02 05:09:16;;;;;;;22.90;21.30;;;;;;;;;;5092003;28;21003;-77
2023/07/02 05:11:43;;;;;;;23.47;21.47;;;;;;;;;;5092535;28;20473;-77
2023/07/02 05:14:10;;;;;;;25.17;22.57;;;;;;;;;;5093537;28;20453;-78
2023/07/02 05:16:37;;;;;;;22.80;21.00;;;;;;;;;;5091832;28;20460;-78
2023/07/02 05:19:04;;;;;;;23.40;21.63;;;;;;;;;;5092976;28;20449;-77
2023/07/02 05:21:32;;;;;;;26.13;23.73;;;;;;;;;;5092058;28;20509;-78
2023/07/02 05:23:59;;;;;;;24.30;22.10;;;;;;;;;;5092271;28;20449;-77
2023/07/02 05:26:26;;;;;;;24.90;22.50;;;;;;;;;;5091838;28;20851;-77
2023/07/02 05:28:53;;;;;;;24.70;22.20;;;;;;;;;;5092273;28;20462;-77
2023/07/02 05:31:20;;;;;;;24.60;22.53;;;;;;;;;;5091762;28;20477;-78
2023/07/02 05:33:47;;;;;;;25.97;23.87;;;;;;;;;;5098596;28;20488;-77
2023/07/02 05:36:14;;;;;;;22.90;21.07;;;;;;;;;;5091575;28;20456;-78
2023/07/02 05:38:43;;;;;;;23.97;22.30;;;;;;;;;;5091681;28;20921;-77
2023/07/02 05:41:10;;;;;;;25.43;23.30;;;;;;;;;;5091516;28;20480;-77
2023/07/02 05:43:37;;;;;;;23.67;21.60;;;;;;;;;;5091452;28;20994;-77
2023/07/02 05:46:04;;;;;;;24.90;22.87;;;;;;;;;;5091297;28;20866;-77
2023/07/02 05:48:31;;;;;;;24.17;22.23;;;;;;;;;;5091696;28;20488;-77
2023/07/02 05:50:58;;;;;;;24.57;22.40;;;;;;;;;;5091387;28;20453;-77
2023/07/02 05:53:25;;;;;;;24.63;22.63;;;;;;;;;;5091359;28;20476;-77
2023/07/02 05:55:53;;;;;;;26.20;23.70;;;;;;;;;;5090991;28;20437;-77
2023/07/02 05:58:20;;;;;;;24.77;22.40;;;;;;;;;;5095203;28;20423;-77
2023/07/02 06:00:49;;;;;;;27.03;24.40;;;;;;;;;;5094464;28;20480;-77
2023/07/02 06:03:19;;;;;;;25.23;23.20;;;;;;;;;;5094868;28;20526;-77
2023/07/02 06:05:47;;;;;;;24.57;22.57;;;;;;;;;;5094898;28;20460;-78
2023/07/02 06:08:14;;;;;;;25.63;23.33;;;;;;;;;;5095017;28;20486;-77
2023/07/02 06:10:41;;;;;;;26.00;23.83;;;;;;;;;;5093858;28;20530;-76
2023/07/02 06:13:10;;;;;;;28.23;25.13;;;;;;;;;;5096427;28;20513;-77
2023/07/02 06:15:37;;;;;;;24.90;23.00;;;;;;;;;;5094709;28;20502;-78
2023/07/02 06:18:04;;;;;;;26.57;24.17;;;;;;;;;;5095321;28;20429;-78
2023/07/02 06:20:31;;;;;;;26.47;24.20;;;;;;;;;;5097127;28;20523;-77
2023/07/02 06:22:58;;;;;;;26.13;23.80;;;;;;;;;;5095257;28;20933;-77
2023/07/02 06:25:25;;;;;;;25.63;23.47;;;;;;;;;;5095597;28;20439;-78
2023/07/02 06:27:54;;;;;;;28.00;25.10;;;;;;;;;;5095663;28;20512;-77
2023/07/02 06:30:23;;;;;;;25.23;22.83;;;;;;;;;;5095609;28;20476;-78
2023/07/02 06:32:50;;;;;;;25.50;23.23;;;;;;;;;;5097418;28;20494;-77
2023/07/02 06:35:17;;;;;;;26.27;23.67;;;;;;;;;;5097339;28;20445;-77
2023/07/02 06:37:44;;;;;;;26.50;24.00;;;;;;;;;;5094906;28;20515;-77
2023/07/02 06:40:11;;;;;;;25.23;23.23;;;;;;;;;;5095915;28;20476;-78
2023/07/02 06:42:38;;;;;;;27.00;24.30;;;;;;;;;;5096705;28;20437;-77
2023/07/02 06:45:06;;;;;;;26.37;24.07;;;;;;;;;;5096518;28;20494;-77
2023/07/02 06:47:34;;;;;;;26.30;23.77;;;;;;;;;;5095557;28;21274;-77
2023/07/02 06:50:01;;;;;;;27.00;24.63;;;;;;;;;;5096334;28;20484;-77
2023/07/02 06:52:28;;;;;;;24.70;22.77;;;;;;;;;;5095903;28;20929;-79
2023/07/02 06:54:55;;;;;;;25.50;23.50;;;;;;;;;;5093678;28;20481;-78
2023/07/02 06:57:23;;;;;;;28.33;25.93;;;;;;;;;;5093822;28;20937;-78
2023/07/02 06:59:51;;;;;;;27.00;24.60;;;;;;;;;;5094960;28;20503;-77
2023/07/02 07:02:18;;;;;;;26.53;24.30;;;;;;;;;;5095280;28;20447;-76
2023/07/02 07:04:46;;;;;;;26.77;24.37;;;;;;;;;;5095865;28;20969;-78
2023/07/02 07:07:13;;;;;;;27.67;25.37;;;;;;;;;;5097868;28;20431;-77
2023/07/02 07:09:40;;;;;;;26.07;23.77;;;;;;;;;;5093693;28;20464;-77
2023/07/02 07:12:08;;;;;;;27.47;25.07;;;;;;;;;;5093293;28;21012;-77
2023/07/02 07:14:35;;;;;;;28.17;25.60;;;;;;;;;;5094245;28;20419;-76
2023/07/02 07:17:02;;;;;;;26.70;24.30;;;;;;;;;;5093426;28;20464;-78
2023/07/02 07:19:29;;;;;;;27.73;25.10;;;;;;;;;;5093029;28;20449;-76
2023/07/02 07:21:58;;;;;;;28.40;26.00;;;;;;;;;;5093370;28;21040;-75
2023/07/02 07:24:25;;;;;;;28.70;26.03;;;;;;;;;;5092768;28;20441;-75
2023/07/02 07:26:52;;;;;;;28.73;25.83;;;;;;;;;;5091803;28;20435;-75
2023/07/02 07:29:19;;;;;;;32.30;25.33;;;;;;;;;;5091423;28;21267;-74
2023/07/02 07:31:46;;;;;;;27.80;25.47;;;;;;;;;;5092016;28;20477;-79
2023/07/02 07:34:13;;;;;;;30.47;27.70;;;;;;;;;;5094007;28;21212;-75
2023/07/02 07:36:40;;;;;;;29.57;27.00;;;;;;;;;;5091676;28;20811;-75
2023/07/02 07:39:09;;;;;;;29.80;27.30;;;;;;;;;;5094383;28;20440;-77
2023/07/02 07:41:36;;;;;;;28.23;25.87;;;;;;;;;;5091606;28;21061;-75
2023/07/02 07:44:03;;;;;;;30.13;27.63;;;;;;;;;;5092282;28;20854;-80
2023/07/02 07:46:36;;;;;;;29.23;26.57;;;;;;;;;;5091543;28;20488;-77
2023/07/02 07:49:03;;;;;;;29.73;26.93;;;;;;;;;;5093263;28;20526;-78
2023/07/02 07:51:30;;;;;;;29.53;26.73;;;;;;;;;;5092348;28;20488;-76
2023/07/02 07:53:57;;;;;;;30.00;27.40;;;;;;;;;;5094124;28;20453;-76
2023/07/02 07:56:25;;;;;;;29.07;26.43;;;;;;;;;;5092427;28;20434;-75
2023/07/02 07:58:52;;;;;;;29.33;26.93;;;;;;;;;;5092574;28;20427;-75
2023/07/02 08:01:20;;;;;;;29.50;26.90;;;;;;;;;;5091981;28;20467;-74
2023/07/02 08:03:47;;;;;;;30.37;27.77;;;;;;;;;;5092971;28;20457;-75
2023/07/02 08:06:14;;;;;;;28.30;25.80;;;;;;;;;;5091430;28;20452;-74
2023/07/02 08:08:41;;;;;;;29.27;26.80;;;;;;;;;;5093446;28;20888;-75
2023/07/02 08:11:08;;;;;;;29.00;26.30;;;;;;;;;;5093264;28;20491;-74
2023/07/02 08:13:36;;;;;;;30.63;27.60;;;;;;;;;;5091990;28;20457;-75
2023/07/02 08:16:04;;;;;;;30.60;27.60;;;;;;;;;;5090872;28;20919;-75
2023/07/02 08:18:31;;;;;;;28.97;26.30;;;;;;;;;;5092337;28;20999;-74
2023/07/02 08:20:57;;;;;;;28.13;25.93;;;;;;;;;;5091662;28;20496;-74
2023/07/02 08:23:26;;;;;;;30.17;27.50;;;;;;;;;;5092259;28;20484;-75
2023/07/02 08:25:53;;;;;;;30.43;27.20;;;;;;;;;;5091424;28;20477;-76
2023/07/02 08:28:20;;;;;;;30.83;28.13;;;;;;;;;;5091347;28;20573;-74
2023/07/02 08:30:48;;;;;;;29.30;26.70;;;;;;;;;;5092611;28;20477;-75
2023/07/02 08:33:15;;;;;;;28.03;25.80;;;;;;;;;;5091528;28;20452;-75
2023/07/02 08:35:42;;;;;;;28.47;25.73;;;;;;;;;;5090869;28;20869;-75
2023/07/02 08:38:09;;;;;;;30.20;27.47;;;;;;;;;;5092628;28;20448;-74
2023/07/02 08:40:36;;;;;;;29.60;26.90;;;;;;;;;;5092773;28;20468;-75
2023/07/02 08:43:03;;;;;;;30.20;27.60;;;;;;;;;;5091843;28;20480;-75
2023/07/02 08:45:31;;;;;;;30.87;27.10;;;;;;;;;;5091220;28;20828;-75
2023/07/02 08:47:59;;;;;;;30.23;27.43;;;;;;;;;;5090925;28;20545;-74
2023/07/02 08:50:26;;;;;;;30.57;28.00;;;;;;;;;;5090892;28;20493;-76
2023/07/02 08:52:54;;;;;;;27.83;25.23;;;;;;;;;;5093080;28;20441;-75
2023/07/02 08:55:22;;;;;;;28.50;25.90;;;;;;;;;;5095409;28;20449;-75
2023/07/02 08:57:50;;;;;;;28.00;25.60;;;;;;;;;;5093417;28;20427;-74
2023/07/02 09:00:17;;;;;;;27.53;25.30;;;;;;;;;;5092643;28;20469;-75
2023/07/02 09:02:44;;;;;;;28.43;25.93;;;;;;;;;;5094438;28;20629;-79
2023/07/02 09:05:13;;;;;;;29.07;26.43;;;;;;;;;;5092050;28;20420;-76
2023/07/02 09:07:46;;;;;;;27.53;24.77;;;;;;;;;;5091021;28;20510;-76
2023/07/02 09:10:13;;;;;;;28.20;25.97;;;;;;;;;;5091504;28;20883;-76
2023/07/02 09:12:40;;;;;;;27.60;25.30;;;;;;;;;;5091629;28;20826;-76
2023/07/02 09:15:08;;;;;;;30.03;27.47;;;;;;;;;;5091744;28;20449;-78
2023/07/02 09:17:36;;;;;;;28.23;25.83;;;;;;;;;;5089149;28;20455;-76
2023/07/02 09:20:04;;;;;;;27.90;25.70;;;;;;;;;;5091389;28;20506;-75
2023/07/02 09:22:32;;;;;;;28.90;26.27;;;;;;;;;;5091387;28;20451;-76
2023/07/02 09:25:00;;;;;;;27.60;25.30;;;;;;;;;;5091987;28;20911;-75
2023/07/02 09:27:37;;;;;;;26.60;24.40;;;;;;;;;;5090920;28;20448;-76
2023/07/02 09:30:08;;;;;;;27.50;25.33;;;;;;;;;;5090865;28;20455;-76
2023/07/02 09:32:35;;;;;;;25.23;23.30;;;;;;;;;;5093049;28;20563;-77
2023/07/02 09:35:03;;;;;;;26.10;23.87;;;;;;;;;;5095121;28;20502;-77
2023/07/02 09:37:32;;;;;;;28.57;26.30;;;;;;;;;;5094547;28;20925;-75
2023/07/02 09:40:00;;;;;;;28.03;25.60;;;;;;;;;;5095251;28;20493;-76
2023/07/02 09:42:27;;;;;;;28.90;26.53;;;;;;;;;;5094798;28;20460;-76
2023/07/02 09:44:55;;;;;;;28.37;25.90;;;;;;;;;;5094986;28;20445;-80
2023/07/02 09:47:23;;;;;;;30.00;27.60;;;;;;;;;;5094355;28;20465;-77
2023/07/02 09:49:51;;;;;;;27.60;25.63;;;;;;;;;;5093989;28;20507;-76
2023/07/02 09:52:18;;;;;;;28.60;26.20;;;;;;;;;;5094551;28;20423;-76
2023/07/02 09:54:47;;;;;;;30.27;27.60;;;;;;;;;;5094305;28;20464;-77
2023/07/02 09:57:14;;;;;;;27.50;25.23;;;;;;;;;;5093898;28;20448;-76
2023/07/02 09:59:43;;;;;;;27.37;25.07;;;;;;;;;;5094388;28;20449;-77
2023/07/02 10:02:10;;;;;;;30.03;27.03;;;;;;;;;;5093579;28;20465;-76
2023/07/02 10:04:43;;;;;;;29.00;26.60;;;;;;;;;;5094318;28;20440;-76
2023/07/02 10:07:10;;;;;;;27.70;25.37;;;;;;;;;;5094091;28;20448;-76
2023/07/02 10:09:38;;;;;;;27.97;25.67;;;;;;;;;;5094400;28;20459;-75
2023/07/02 10:12:18;;;;;;;29.27;26.47;;;;;;;;;;5095030;28;20461;-79
2023/07/02 10:14:45;;;;;;;28.83;26.53;;;;;;;;;;5095359;28;20414;-78
2023/07/02 10:17:24;;;;;;;27.53;25.50;;;;;;;;;;5094198;28;20477;-77
2023/07/02 10:19:51;;;;;;;27.03;25.00;;;;;;;;;;5094492;28;20506;-77
2023/07/02 10:22:18;;;;;;;27.80;25.53;;;;;;;;;;5094590;28;20432;-76
2023/07/02 10:24:52;;;;;;;27.50;25.40;;;;;;;;;;5094602;28;20448;-77
2023/07/02 10:27:21;;;;;;;27.87;25.67;;;;;;;;;;5094685;28;20429;-76
2023/07/02 10:29:51;;;;;;;28.57;26.27;;;;;;;;;;5093588;28;20524;-77
2023/07/02 10:32:27;;;;;;;26.70;24.80;;;;;;;;;;5094746;28;20414;-76
2023/07/02 10:34:55;;;;;;;30.20;27.40;;;;;;;;;;5094215;28;20428;-77
2023/07/02 10:37:22;;;;;;;29.37;26.63;;;;;;;;;;5093226;28;20445;-75
2023/07/02 10:39:49;;;;;;;28.13;25.93;;;;;;;;;;5094081;28;20419;-76
2023/07/02 10:42:16;;;;;;;28.57;26.27;;;;;;;;;;5094104;28;20427;-77
2023/07/02 10:44:51;;;;;;;31.70;29.33;;;;;;;;;;5093158;28;20422;-76
2023/07/02 10:47:18;;;;;;;27.67;25.57;;;;;;;;;;5095243;28;20452;-76
2023/07/02 10:49:45;;;;;;;31.60;28.87;;;;;;;;;;5097306;28;20988;-76
2023/07/02 10:52:12;;;;;;;28.00;25.87;;;;;;;;;;5100162;28;20485;-76
2023/07/02 10:54:40;;;;;;;27.50;25.40;;;;;;;;;;5098226;28;20430;-77
2023/07/02 10:57:08;;;;;;;26.93;24.83;;;;;;;;;;5098098;28;20453;-75
2023/07/02 10:59:35;;;;;;;28.83;26.53;;;;;;;;;;5095716;28;20452;-76
2023/07/02 11:02:03;;;;;;;28.40;26.07;;;;;;;;;;5095355;28;20472;-75
2023/07/02 11:04:31;;;;;;;27.97;25.57;;;;;;;;;;5095624;28;20490;-76
2023/07/02 11:06:58;;;;;;;28.80;26.27;;;;;;;;;;5093201;28;20449;-78
2023/07/02 11:09:25;;;;;;;29.10;26.70;;;;;;;;;;5091788;28;20480;-77
2023/07/02 11:11:53;;;;;;;29.80;27.33;;;;;;;;;;5092405;28;20465;-78
2023/07/02 11:14:27;;;;;;;30.60;27.83;;;;;;;;;;5092638;28;20445;-77
2023/07/02 11:16:56;;;;;;;28.90;26.10;;;;;;;;;;5092902;28;20438;-76
2023/07/02 11:19:24;;;;;;;28.27;25.80;;;;;;;;;;5091892;28;20475;-74
2023/07/02 11:21:56;;;;;;;29.13;26.83;;;;;;;;;;5093716;28;20468;-77
2023/07/02 11:24:30;;;;;;;28.83;26.63;;;;;;;;;;5093827;28;20453;-75
2023/07/02 11:26:57;;;;;;;29.90;27.40;;;;;;;;;;5092268;28;20924;-77
2023/07/02 11:29:24;;;;;;;29.20;26.90;;;;;;;;;;5092739;28;20506;-76
2023/07/02 11:31:51;;;;;;;28.43;26.20;;;;;;;;;;5092109;28;20990;-77
2023/07/02 11:34:19;;;;;;;27.60;25.30;;;;;;;;;;5093627;28;20502;-76
2023/07/02 11:36:48;;;;;;;28.10;26.10;;;;;;;;;;5093380;28;20452;-76
2023/07/02 11:39:15;;;;;;;27.43;25.27;;;;;;;;;;5093933;28;20952;-76
2023/07/02 11:41:44;;;;;;;28.43;25.80;;;;;;;;;;5095131;28;20539;-75
2023/07/02 11:44:11;;;;;;;29.93;27.63;;;;;;;;;;5095017;28;20444;-76
2023/07/02 11:46:38;;;;;;;28.93;26.63;;;;;;;;;;5092572;28;20445;-76
2023/07/02 11:49:08;;;;;;;30.47;27.87;;;;;;;;;;5093884;28;20452;-76
2023/07/02 11:51:35;;;;;;;28.77;26.57;;;;;;;;;;5092171;28;21008;-76
2023/07/02 11:54:03;;;;;;;28.43;25.90;;;;;;;;;;5093033;28;20436;-76
2023/07/02 11:56:31;;;;;;;30.30;28.00;;;;;;;;;;5092013;28;20849;-76
2023/07/02 11:58:58;;;;;;;29.43;26.33;;;;;;;;;;5092251;28;20448;-78
2023/07/02 12:01:25;;;;;;;27.70;25.40;;;;;;;;;;5091007;28;20460;-76
2023/07/02 12:03:52;;;;;;;27.10;24.80;;;;;;;;;;5092253;28;20445;-76
2023/07/02 12:06:19;;;;;;;28.80;26.53;;;;;;;;;;5091650;28;20445;-76
2023/07/02 12:08:46;;;;;;;28.20;26.10;;;;;;;;;;5092149;28;20423;-76
2023/07/02 12:11:15;;;;;;;27.07;25.03;;;;;;;;;;5091497;28;20497;-76
2023/07/02 12:13:42;;;;;;;26.47;24.37;;;;;;;;;;5092036;28;20448;-76
2023/07/02 12:16:09;;;;;;;29.53;27.13;;;;;;;;;;5092375;28;20578;-76
2023/07/02 12:18:36;;;;;;;28.30;26.10;;;;;;;;;;5092337;28;20453;-75
2023/07/02 12:21:03;;;;;;;25.63;23.80;;;;;;;;;;5091832;28;21032;-76
2023/07/02 12:23:30;;;;;;;28.60;26.63;;;;;;;;;;5093322;28;20457;-76
2023/07/02 12:25:58;;;;;;;30.33;28.10;;;;;;;;;;5091534;28;20448;-76
2023/07/02 12:28:26;;;;;;;31.00;28.37;;;;;;;;;;5091932;28;20506;-76
2023/07/02 12:30:53;;;;;;;32.57;30.07;;;;;;;;;;5090635;28;20904;-76
2023/07/02 12:33:20;;;;;;;31.73;29.03;;;;;;;;;;5093007;28;20453;-77
2023/07/02 12:35:47;;;;;;;30.50;27.60;;;;;;;;;;5076115;28;20461;-75
2023/07/02 12:38:14;;;;;;;30.17;27.87;;;;;;;;;;5079502;28;20420;-75
2023/07/02 12:40:41;;;;;;;29.17;26.83;;;;;;;;;;5079268;28;20437;-75
2023/07/02 12:43:08;;;;;;;29.60;26.80;;;;;;;;;;5071803;28;20450;-75
2023/07/02 12:45:36;;;;;;;28.33;26.10;;;;;;;;;;5071382;28;20453;-77
2023/07/02 12:48:03;;;;;;;28.30;25.60;;;;;;;;;;5071579;28;20471;-75
2023/07/02 12:50:30;;;;;;;27.93;25.47;;;;;;;;;;5072606;28;20502;-75
2023/07/02 12:52:57;;;;;;;30.03;27.40;;;;;;;;;;5071835;28;20438;-76
2023/07/02 12:55:24;;;;;;;28.90;26.13;;;;;;;;;;5072387;28;20482;-77
2023/07/02 12:57:52;;;;;;;28.70;26.37;;;;;;;;;;5070678;28;20442;-75
2023/07/02 13:00:20;;;;;;;26.83;24.83;;;;;;;;;;5077628;28;20485;-75
2023/07/02 13:02:49;;;;;;;26.60;24.60;;;;;;;;;;5080867;28;20454;-75
2023/07/02 13:05:16;;;;;;;28.67;26.37;;;;;;;;;;5073072;28;20436;-75
2023/07/02 13:07:43;;;;;;;27.60;25.60;;;;;;;;;;5076742;28;20821;-75
2023/07/02 13:10:10;;;;;;;27.93;25.30;;;;;;;;;;5075910;28;20542;-76
2023/07/02 13:12:37;;;;;;;26.47;24.33;;;;;;;;;;5076528;28;20475;-76
2023/07/02 13:15:04;;;;;;;25.77;24.03;;;;;;;;;;5076768;28;20897;-76
2023/07/02 13:17:31;;;;;;;27.40;25.30;;;;;;;;;;5078551;28;20457;-75
2023/07/02 13:19:59;;;;;;;26.80;24.83;;;;;;;;;;5076579;28;20449;-76
2023/07/02 13:22:26;;;;;;;28.97;26.77;;;;;;;;;;5086962;28;20449;-76
2023/07/02 13:24:53;;;;;;;26.67;24.63;;;;;;;;;;5080958;28;20491;-76
2023/07/02 13:27:20;;;;;;;27.63;25.40;;;;;;;;;;5073961;28;20445;-76
2023/07/02 13:29:47;;;;;;;27.43;25.23;;;;;;;;;;5075492;28;20497;-76
2023/07/02 13:32:14;;;;;;;27.27;25.27;;;;;;;;;;5074294;28;20481;-76
2023/07/02 13:34:41;;;;;;;26.97;24.97;;;;;;;;;;5075276;28;20432;-76
2023/07/02 13:37:10;;;;;;;27.17;25.30;;;;;;;;;;5074125;28;20542;-76
2023/07/02 13:39:37;;;;;;;27.00;24.97;;;;;;;;;;5074192;28;20466;-77
2023/07/02 13:42:04;;;;;;;28.47;26.03;;;;;;;;;;5074490;28;20539;-82
2023/07/02 13:44:31;;;;;;;28.10;26.10;;;;;;;;;;5074627;28;20416;-76
2023/07/02 13:46:58;;;;;;;27.93;25.83;;;;;;;;;;5073632;28;20482;-77
2023/07/02 13:49:25;;;;;;;28.00;26.10;;;;;;;;;;5074143;28;20454;-76
2023/07/02 13:51:51;;;;;;;28.07;25.97;;;;;;;;;;5073148;28;20544;-76
2023/07/02 13:54:20;;;;;;;29.43;27.00;;;;;;;;;;5074402;28;20506;-76
2023/07/02 13:56:47;;;;;;;28.77;26.67;;;;;;;;;;5073651;28;20503;-76
2023/07/02 13:59:16;;;;;;;27.60;25.30;;;;;;;;;;5074152;28;20453;-76
2023/07/02 14:01:43;;;;;;;29.17;27.00;;;;;;;;;;5073817;28;21078;-77
2023/07/02 14:04:11;;;;;;;28.90;26.83;;;;;;;;;;5074280;28;20504;-76
2023/07/02 14:06:38;;;;;;;28.23;26.13;;;;;;;;;;5073425;28;20503;-75
2023/07/02 14:09:05;;;;;;;28.00;26.10;;;;;;;;;;5073867;28;20450;-76
2023/07/02 14:11:33;;;;;;;29.13;26.43;;;;;;;;;;5072918;28;20495;-77
2023/07/02 14:14:00;;;;;;;29.67;27.47;;;;;;;;;;5073785;28;20520;-77
2023/07/02 14:16:28;;;;;;;28.20;25.90;;;;;;;;;;5073572;28;20468;-76
2023/07/02 14:18:55;;;;;;;28.67;26.27;;;;;;;;;;5073547;28;20416;-75